sensor_id;sensor_type;location;lat;lon;timestamp;pressure;altitude;pressure_sealevel;temperature;humidity
85641;BME280;76065;47.182;27.506;2024-03-02T00:02:13;100665.59;;;7.00;74.82
85641;BME280;76065;47.182;27.506;2024-03-02T00:04:39;100661.59;;;6.97;74.83
85641;BME280;76065;47.182;27.506;2024-03-02T00:07:06;100669.91;;;7.01;74.96
85641;BME280;76065;47.182;27.506;2024-03-02T00:09:32;100657.25;;;6.91;75.69
85641;BME280;76065;47.182;27.506;2024-03-02T00:11:59;100670.44;;;6.98;75.39
85641;BME280;76065;47.182;27.506;2024-03-02T00:14:25;100663.69;;;6.95;75.05
85641;BME280;76065;47.182;27.506;2024-03-02T00:16:51;100656.44;;;6.91;75.81
85641;BME280;76065;47.182;27.506;2024-03-02T00:19:18;100662.31;;;6.88;75.31
85641;BME280;76065;47.182;27.506;2024-03-02T00:21:44;100664.44;;;6.86;75.55
85641;BME280;76065;47.182;27.506;2024-03-02T00:24:31;100660.41;;;6.83;75.96
85641;BME280;76065;47.182;27.506;2024-03-02T00:26:57;100656.09;;;6.77;76.63
85641;BME280;76065;47.182;27.506;2024-03-02T00:29:22;100665.22;;;6.81;75.84
85641;BME280;76065;47.182;27.506;2024-03-02T00:31:48;100657.38;;;6.75;76.17
85641;BME280;76065;47.182;27.506;2024-03-02T00:34:14;100659.06;;;6.81;75.26
85641;BME280;76065;47.182;27.506;2024-03-02T00:36:41;100657.69;;;6.78;75.78
85641;BME280;76065;47.182;27.506;2024-03-02T00:39:07;100649.34;;;6.75;75.86
85641;BME280;76065;47.182;27.506;2024-03-02T00:41:33;100642.13;;;6.75;75.02
85641;BME280;76065;47.182;27.506;2024-03-02T00:46:35;100615.03;;;6.67;75.08
85641;BME280;76065;47.182;27.506;2024-03-02T00:49:11;100617.69;;;6.62;74.91
85641;BME280;76065;47.182;27.506;2024-03-02T00:51:39;100596.19;;;6.51;74.34
85641;BME280;76065;47.182;27.506;2024-03-02T00:54:07;100609.63;;;6.56;74.35
85641;BME280;76065;47.182;27.506;2024-03-02T00:56:33;100610.09;;;6.48;74.65
85641;BME280;76065;47.182;27.506;2024-03-02T00:59:00;100603.91;;;6.43;74.98
85641;BME280;76065;47.182;27.506;2024-03-02T01:01:26;100604.47;;;6.45;75.13
85641;BME280;76065;47.182;27.506;2024-03-02T01:03:52;100594.28;;;6.42;75.21
85641;BME280;76065;47.182;27.506;2024-03-02T01:06:18;100614.09;;;6.46;75.16
85641;BME280;76065;47.182;27.506;2024-03-02T01:08:44;100614.41;;;6.49;74.99
85641;BME280;76065;47.182;27.506;2024-03-02T01:11:10;100590.19;;;6.34;75.03
85641;BME280;76065;47.182;27.506;2024-03-02T01:13:36;100595.56;;;6.39;75.15
85641;BME280;76065;47.182;27.506;2024-03-02T01:16:02;100594.28;;;6.42;75.11
85641;BME280;76065;47.182;27.506;2024-03-02T01:18:28;100602.31;;;6.42;74.96
85641;BME280;76065;47.182;27.506;2024-03-02T01:20:54;100586.50;;;6.40;75.17
85641;BME280;76065;47.182;27.506;2024-03-02T01:23:23;100584.88;;;6.39;74.83
85641;BME280;76065;47.182;27.506;2024-03-02T01:25:49;100588.59;;;6.33;75.71
85641;BME280;76065;47.182;27.506;2024-03-02T01:28:15;100579.94;;;6.26;74.76
85641;BME280;76065;47.182;27.506;2024-03-02T01:30:41;100580.75;;;6.27;75.93
85641;BME280;76065;47.182;27.506;2024-03-02T01:33:07;100589.88;;;6.26;75.52
85641;BME280;76065;47.182;27.506;2024-03-02T01:35:33;100583.09;;;6.18;75.22
85641;BME280;76065;47.182;27.506;2024-03-02T01:37:59;100589.00;;;6.20;75.28
85641;BME280;76065;47.182;27.506;2024-03-02T01:40:25;100571.28;;;6.09;75.96
85641;BME280;76065;47.182;27.506;2024-03-02T01:42:55;100568.03;;;6.07;75.46
85641;BME280;76065;47.182;27.506;2024-03-02T01:45:21;100581.75;;;6.16;76.11
85641;BME280;76065;47.182;27.506;2024-03-02T01:47:47;100578.56;;;6.19;75.49
85641;BME280;76065;47.182;27.506;2024-03-02T01:50:13;100570.19;;;6.10;75.67
85641;BME280;76065;47.182;27.506;2024-03-02T01:52:38;100579.63;;;6.18;75.34
85641;BME280;76065;47.182;27.506;2024-03-02T01:55:05;100568.59;;;6.09;75.79
85641;BME280;76065;47.182;27.506;2024-03-02T01:57:31;100556.56;;;6.11;75.35
85641;BME280;76065;47.182;27.506;2024-03-02T01:59:57;100565.94;;;6.14;75.65
85641;BME280;76065;47.182;27.506;2024-03-02T02:02:23;100565.16;;;6.14;75.54
85641;BME280;76065;47.182;27.506;2024-03-02T02:04:49;100559.50;;;6.10;75.98
85641;BME280;76065;47.182;27.506;2024-03-02T02:07:15;100547.16;;;6.04;75.70
85641;BME280;76065;47.182;27.506;2024-03-02T02:09:43;100562.16;;;6.10;75.73
85641;BME280;76065;47.182;27.506;2024-03-02T02:12:09;100552.50;;;6.04;75.75
85641;BME280;76065;47.182;27.506;2024-03-02T02:14:36;100565.88;;;6.04;76.32
85641;BME280;76065;47.182;27.506;2024-03-02T02:17:02;100509.91;;;5.65;76.16
85641;BME280;76065;47.182;27.506;2024-03-02T02:19:28;100569.00;;;5.96;76.05
85641;BME280;76065;47.182;27.506;2024-03-02T02:21:54;100558.81;;;5.93;75.86
85641;BME280;76065;47.182;27.506;2024-03-02T02:24:20;100541.00;;;5.77;76.48
85641;BME280;76065;47.182;27.506;2024-03-02T02:26:45;100555.84;;;5.89;75.77
85641;BME280;76065;47.182;27.506;2024-03-02T02:29:11;100537.81;;;5.80;77.01
85641;BME280;76065;47.182;27.506;2024-03-02T02:31:37;100558.78;;;5.88;77.06
85641;BME280;76065;47.182;27.506;2024-03-02T02:34:04;100560.38;;;5.89;76.74
85641;BME280;76065;47.182;27.506;2024-03-02T02:36:29;100551.25;;;5.85;77.40
85641;BME280;76065;47.182;27.506;2024-03-02T02:38:55;100558.00;;;5.92;77.12
85641;BME280;76065;47.182;27.506;2024-03-02T02:41:21;100537.06;;;5.84;76.96
85641;BME280;76065;47.182;27.506;2024-03-02T02:43:46;100539.25;;;5.87;76.71
85641;BME280;76065;47.182;27.506;2024-03-02T02:46:12;100542.50;;;5.89;76.58
85641;BME280;76065;47.182;27.506;2024-03-02T02:48:37;100531.44;;;5.86;76.79
85641;BME280;76065;47.182;27.506;2024-03-02T02:51:03;100553.47;;;5.93;76.95
85641;BME280;76065;47.182;27.506;2024-03-02T02:53:28;100546.47;;;5.87;76.01
85641;BME280;76065;47.182;27.506;2024-03-02T02:55:54;100538.38;;;5.82;76.29
85641;BME280;76065;47.182;27.506;2024-03-02T02:58:20;100542.72;;;5.88;75.50
85641;BME280;76065;47.182;27.506;2024-03-02T03:00:45;100541.69;;;5.94;75.17
85641;BME280;76065;47.182;27.506;2024-03-02T03:03:11;100539.81;;;5.89;75.58
85641;BME280;76065;47.182;27.506;2024-03-02T03:05:36;100542.41;;;5.84;75.06
85641;BME280;76065;47.182;27.506;2024-03-02T03:08:02;100545.41;;;5.88;74.74
85641;BME280;76065;47.182;27.506;2024-03-02T03:10:28;100536.25;;;5.84;74.32
85641;BME280;76065;47.182;27.506;2024-03-02T03:12:53;100537.63;;;5.86;74.01
85641;BME280;76065;47.182;27.506;2024-03-02T03:15:21;100547.63;;;5.96;74.55
85641;BME280;76065;47.182;27.506;2024-03-02T03:17:46;100519.34;;;5.78;74.60
85641;BME280;76065;47.182;27.506;2024-03-02T03:20:12;100536.56;;;5.87;75.21
85641;BME280;76065;47.182;27.506;2024-03-02T03:22:39;100526.88;;;5.81;74.76
85641;BME280;76065;47.182;27.506;2024-03-02T03:25:05;100533.09;;;5.87;75.00
85641;BME280;76065;47.182;27.506;2024-03-02T03:27:31;100518.88;;;5.81;75.65
85641;BME280;76065;47.182;27.506;2024-03-02T03:29:57;100515.91;;;5.78;75.78
85641;BME280;76065;47.182;27.506;2024-03-02T03:32:22;100519.06;;;5.75;76.33
85641;BME280;76065;47.182;27.506;2024-03-02T03:34:48;100524.97;;;5.77;75.80
85641;BME280;76065;47.182;27.506;2024-03-02T03:37:14;100524.69;;;5.78;75.59
85641;BME280;76065;47.182;27.506;2024-03-02T03:39:40;100509.41;;;5.69;76.51
85641;BME280;76065;47.182;27.506;2024-03-02T03:42:06;100513.41;;;5.71;75.47
85641;BME280;76065;47.182;27.506;2024-03-02T03:44:31;100511.00;;;5.70;75.58
85641;BME280;76065;47.182;27.506;2024-03-02T03:46:57;100505.66;;;5.70;75.48
85641;BME280;76065;47.182;27.506;2024-03-02T03:49:23;100498.88;;;5.62;75.89
85641;BME280;76065;47.182;27.506;2024-03-02T03:51:48;100499.25;;;5.71;75.26
85641;BME280;76065;47.182;27.506;2024-03-02T03:54:14;100501.44;;;5.74;74.97
85641;BME280;76065;47.182;27.506;2024-03-02T03:56:40;100487.66;;;5.60;75.71
85641;BME280;76065;47.182;27.506;2024-03-02T03:59:05;100494.63;;;5.61;75.94
85641;BME280;76065;47.182;27.506;2024-03-02T04:01:31;100490.63;;;5.63;75.65
85641;BME280;76065;47.182;27.506;2024-03-02T04:03:57;100504.34;;;5.72;75.29
85641;BME280;76065;47.182;27.506;2024-03-02T04:06:23;100499.75;;;5.68;74.51
85641;BME280;76065;47.182;27.506;2024-03-02T04:08:49;100490.88;;;5.62;75.23
85641;BME280;76065;47.182;27.506;2024-03-02T04:11:14;100520.69;;;5.76;73.35
85641;BME280;76065;47.182;27.506;2024-03-02T04:13:40;100499.81;;;5.73;73.19
85641;BME280;76065;47.182;27.506;2024-03-02T04:16:06;100507.03;;;5.72;72.50
85641;BME280;76065;47.182;27.506;2024-03-02T04:18:31;100517.75;;;5.77;73.32
85641;BME280;76065;47.182;27.506;2024-03-02T04:21:00;100504.34;;;5.72;72.72
85641;BME280;76065;47.182;27.506;2024-03-02T04:23:28;100506.78;;;5.74;72.93
85641;BME280;76065;47.182;27.506;2024-03-02T04:25:54;100507.56;;;5.74;72.28
85641;BME280;76065;47.182;27.506;2024-03-02T04:28:20;100509.69;;;5.72;72.67
85641;BME280;76065;47.182;27.506;2024-03-02T04:30:45;100489.59;;;5.64;72.49
85641;BME280;76065;47.182;27.506;2024-03-02T04:33:11;100496.34;;;5.72;71.78
85641;BME280;76065;47.182;27.506;2024-03-02T04:35:37;100499.25;;;5.71;72.12
85641;BME280;76065;47.182;27.506;2024-03-02T04:38:03;100509.97;;;5.76;72.65
85641;BME280;76065;47.182;27.506;2024-03-02T04:40:28;100507.31;;;5.76;72.90
85641;BME280;76065;47.182;27.506;2024-03-02T04:42:54;100501.38;;;5.69;72.07
85641;BME280;76065;47.182;27.506;2024-03-02T04:45:20;100514.28;;;5.77;72.46
85641;BME280;76065;47.182;27.506;2024-03-02T04:47:45;100497.66;;;5.70;72.40
85641;BME280;76065;47.182;27.506;2024-03-02T04:50:11;100508.94;;;5.77;72.26
85641;BME280;76065;47.182;27.506;2024-03-02T04:52:36;100493.41;;;5.74;73.00
85641;BME280;76065;47.182;27.506;2024-03-02T04:55:02;100502.78;;;5.76;72.68
85641;BME280;76065;47.182;27.506;2024-03-02T04:57:47;100499.53;;;5.74;72.75
85641;BME280;76065;47.182;27.506;2024-03-02T05:00:13;100522.03;;;5.78;73.61
85641;BME280;76065;47.182;27.506;2024-03-02T05:02:39;100526.59;;;5.78;73.39
85641;BME280;76065;47.182;27.506;2024-03-02T05:05:04;100508.38;;;5.75;72.59
85641;BME280;76065;47.182;27.506;2024-03-02T05:07:30;100531.97;;;5.83;73.94
85641;BME280;76065;47.182;27.506;2024-03-02T05:09:56;100514.53;;;5.75;72.93
85641;BME280;76065;47.182;27.506;2024-03-02T05:12:21;100526.09;;;5.86;73.40
85641;BME280;76065;47.182;27.506;2024-03-02T05:15:12;100526.06;;;5.81;74.56
85641;BME280;76065;47.182;27.506;2024-03-02T05:17:39;100530.38;;;5.82;74.34
85641;BME280;76065;47.182;27.506;2024-03-02T05:20:06;100522.53;;;5.75;73.92
85641;BME280;76065;47.182;27.506;2024-03-02T05:22:33;100547.69;;;5.79;74.19
85641;BME280;76065;47.182;27.506;2024-03-02T05:24:59;100536.47;;;5.77;74.14
85641;BME280;76065;47.182;27.506;2024-03-02T05:27:26;100536.94;;;5.69;74.73
85641;BME280;76065;47.182;27.506;2024-03-02T05:29:52;100528.03;;;5.63;74.69
85641;BME280;76065;47.182;27.506;2024-03-02T05:32:18;100530.66;;;5.58;74.47
85641;BME280;76065;47.182;27.506;2024-03-02T05:34:43;100529.09;;;5.62;74.12
85641;BME280;76065;47.182;27.506;2024-03-02T05:37:09;100536.25;;;5.84;73.85
85641;BME280;76065;47.182;27.506;2024-03-02T05:39:34;100534.97;;;5.86;72.32
85641;BME280;76065;47.182;27.506;2024-03-02T05:42:00;100535.72;;;5.82;72.98
85641;BME280;76065;47.182;27.506;2024-03-02T05:44:25;100539.00;;;5.89;73.20
85641;BME280;76065;47.182;27.506;2024-03-02T05:46:51;100536.00;;;5.85;73.35
85641;BME280;76065;47.182;27.506;2024-03-02T05:49:17;100536.78;;;5.86;73.39
85641;BME280;76065;47.182;27.506;2024-03-02T05:51:42;100538.25;;;5.93;72.73
85641;BME280;76065;47.182;27.506;2024-03-02T05:54:08;100547.38;;;5.97;72.56
85641;BME280;76065;47.182;27.506;2024-03-02T05:56:34;100541.81;;;6.04;71.92
85641;BME280;76065;47.182;27.506;2024-03-02T05:59:00;100530.06;;;6.05;70.96
85641;BME280;76065;47.182;27.506;2024-03-02T06:01:45;100551.81;;;6.19;71.12
85641;BME280;76065;47.182;27.506;2024-03-02T06:04:12;100540.81;;;6.15;70.34
85641;BME280;76065;47.182;27.506;2024-03-02T06:06:37;100560.13;;;6.22;70.77
85641;BME280;76065;47.182;27.506;2024-03-02T06:09:04;100559.03;;;6.18;70.57
85641;BME280;76065;47.182;27.506;2024-03-02T06:11:36;100541.91;;;6.19;70.29
85641;BME280;76065;47.182;27.506;2024-03-02T06:14:05;100546.00;;;6.27;70.06
85641;BME280;76065;47.182;27.506;2024-03-02T06:16:32;100558.34;;;6.33;70.15
85641;BME280;76065;47.182;27.506;2024-03-02T06:18:58;100548.31;;;6.18;71.17
85641;BME280;76065;47.182;27.506;2024-03-02T06:21:27;100551.63;;;6.25;70.55
85641;BME280;76065;47.182;27.506;2024-03-02T06:23:53;100560.75;;;6.34;70.14
85641;BME280;76065;47.182;27.506;2024-03-02T06:26:19;100555.72;;;6.38;70.31
85641;BME280;76065;47.182;27.506;2024-03-02T06:28:45;100564.06;;;6.46;69.56
85641;BME280;76065;47.182;27.506;2024-03-02T06:31:11;100558.22;;;6.49;69.17
85641;BME280;76065;47.182;27.506;2024-03-02T06:33:36;100546.41;;;6.45;69.00
85641;BME280;76065;47.182;27.506;2024-03-02T06:36:02;100554.25;;;6.57;68.29
85641;BME280;76065;47.182;27.506;2024-03-02T06:38:28;100550.47;;;6.53;67.95
85641;BME280;76065;47.182;27.506;2024-03-02T06:40:54;100554.44;;;6.50;69.08
85641;BME280;76065;47.182;27.506;2024-03-02T06:43:21;100561.72;;;6.55;68.17
85641;BME280;76065;47.182;27.506;2024-03-02T06:45:50;100549.09;;;6.50;68.82
85641;BME280;76065;47.182;27.506;2024-03-02T06:48:19;100553.47;;;6.62;68.46
85641;BME280;76065;47.182;27.506;2024-03-02T06:50:47;100556.72;;;6.69;68.58
85641;BME280;76065;47.182;27.506;2024-03-02T06:53:13;100551.66;;;6.72;67.45
85641;BME280;76065;47.182;27.506;2024-03-02T06:55:42;100559.97;;;6.76;67.95
85641;BME280;76065;47.182;27.506;2024-03-02T06:58:08;100562.72;;;6.86;67.49
85641;BME280;76065;47.182;27.506;2024-03-02T07:00:33;100565.19;;;6.97;66.54
85641;BME280;76065;47.182;27.506;2024-03-02T07:02:59;100545.06;;;6.90;66.73
85641;BME280;76065;47.182;27.506;2024-03-02T07:05:24;100548.84;;;6.94;67.13
85641;BME280;76065;47.182;27.506;2024-03-02T07:07:50;100545.38;;;7.03;66.65
85641;BME280;76065;47.182;27.506;2024-03-02T07:10:16;100560.44;;;7.15;66.85
85641;BME280;76065;47.182;27.506;2024-03-02T07:12:41;100545.16;;;7.15;66.88
85641;BME280;76065;47.182;27.506;2024-03-02T07:15:07;100560.75;;;7.28;66.39
85641;BME280;76065;47.182;27.506;2024-03-02T07:17:47;100559.69;;;7.34;66.40
85641;BME280;76065;47.182;27.506;2024-03-02T07:20:12;100559.19;;;7.37;66.51
85641;BME280;76065;47.182;27.506;2024-03-02T07:22:38;100568.63;;;7.50;66.02
85641;BME280;76065;47.182;27.506;2024-03-02T07:25:05;100549.31;;;7.48;66.24
85641;BME280;76065;47.182;27.506;2024-03-02T07:27:32;100568.38;;;7.62;65.23
85641;BME280;76065;47.182;27.506;2024-03-02T07:29:59;100558.97;;;7.49;65.54
85641;BME280;76065;47.182;27.506;2024-03-02T07:32:24;100566.44;;;7.47;65.21
85641;BME280;76065;47.182;27.506;2024-03-02T07:34:49;100561.63;;;7.49;65.94
85641;BME280;76065;47.182;27.506;2024-03-02T07:37:16;100576.97;;;7.69;65.86
85641;BME280;76065;47.182;27.506;2024-03-02T07:39:44;100581.00;;;7.81;65.05
85641;BME280;76065;47.182;27.506;2024-03-02T07:42:10;100563.84;;;7.82;65.39
85641;BME280;76065;47.182;27.506;2024-03-02T07:44:35;100558.22;;;7.89;64.99
85641;BME280;76065;47.182;27.506;2024-03-02T07:47:01;100561.47;;;7.86;64.55
85641;BME280;76065;47.182;27.506;2024-03-02T07:49:27;100565.22;;;7.90;64.29
85641;BME280;76065;47.182;27.506;2024-03-02T07:51:52;100556.09;;;7.86;64.68
85641;BME280;76065;47.182;27.506;2024-03-02T07:54:18;100575.41;;;7.98;65.07
85641;BME280;76065;47.182;27.506;2024-03-02T07:56:44;100562.22;;;7.86;64.89
85641;BME280;76065;47.182;27.506;2024-03-02T07:59:10;100565.22;;;8.05;64.47
85641;BME280;76065;47.182;27.506;2024-03-02T08:01:36;100562.00;;;8.13;64.56
85641;BME280;76065;47.182;27.506;2024-03-02T08:04:02;100575.16;;;8.20;63.27
85641;BME280;76065;47.182;27.506;2024-03-02T08:06:30;100578.94;;;8.34;63.13
85641;BME280;76065;47.182;27.506;2024-03-02T08:08:57;100570.06;;;8.18;62.33
85641;BME280;76065;47.182;27.506;2024-03-02T08:11:23;100555.84;;;8.13;63.25
85641;BME280;76065;47.182;27.506;2024-03-02T08:13:49;100558.78;;;8.21;62.87
85641;BME280;76065;47.182;27.506;2024-03-02T08:16:16;100556.91;;;8.27;62.11
85641;BME280;76065;47.182;27.506;2024-03-02T08:18:45;100550.75;;;8.26;61.68
85641;BME280;76065;47.182;27.506;2024-03-02T08:21:11;100544.06;;;8.29;61.59
85641;BME280;76065;47.182;27.506;2024-03-02T08:23:37;100560.16;;;8.29;61.09
85641;BME280;76065;47.182;27.506;2024-03-02T08:26:03;100537.88;;;8.18;60.56
85641;BME280;76065;47.182;27.506;2024-03-02T08:28:29;100546.19;;;8.17;60.95
85641;BME280;76065;47.182;27.506;2024-03-02T08:30:55;100547.25;;;8.16;60.58
85641;BME280;76065;47.182;27.506;2024-03-02T08:33:22;100539.47;;;8.14;60.74
85641;BME280;76065;47.182;27.506;2024-03-02T08:35:47;100547.00;;;8.22;60.33
85641;BME280;76065;47.182;27.506;2024-03-02T08:38:13;100555.03;;;8.22;60.72
85641;BME280;76065;47.182;27.506;2024-03-02T08:40:39;100549.38;;;8.24;60.70
85641;BME280;76065;47.182;27.506;2024-03-02T08:43:04;100546.97;;;8.12;60.62
85641;BME280;76065;47.182;27.506;2024-03-02T08:45:30;100555.03;;;8.07;60.61
85641;BME280;76065;47.182;27.506;2024-03-02T08:47:55;100542.97;;;8.05;61.71
85641;BME280;76065;47.182;27.506;2024-03-02T08:50:21;100550.19;;;8.09;61.27
85641;BME280;76065;47.182;27.506;2024-03-02T08:52:46;100540.00;;;8.01;61.15
85641;BME280;76065;47.182;27.506;2024-03-02T08:55:12;100533.81;;;7.95;60.39
85641;BME280;76065;47.182;27.506;2024-03-02T08:57:38;100537.84;;;7.93;60.86
85641;BME280;76065;47.182;27.506;2024-03-02T09:00:04;100541.09;;;7.90;60.83
85641;BME280;76065;47.182;27.506;2024-03-02T09:02:30;100537.03;;;7.82;61.27
85641;BME280;76065;47.182;27.506;2024-03-02T09:04:56;100542.69;;;7.86;60.61
85641;BME280;76065;47.182;27.506;2024-03-02T09:07:22;100546.16;;;7.91;60.60
85641;BME280;76065;47.182;27.506;2024-03-02T09:09:47;100533.03;;;7.85;60.50
85641;BME280;76065;47.182;27.506;2024-03-02T09:12:13;100526.31;;;7.72;60.23
85641;BME280;76065;47.182;27.506;2024-03-02T09:14:38;100531.41;;;7.79;60.68
85641;BME280;76065;47.182;27.506;2024-03-02T09:17:04;100531.41;;;7.84;60.68
85641;BME280;76065;47.182;27.506;2024-03-02T09:19:30;100546.97;;;7.97;60.74
85641;BME280;76065;47.182;27.506;2024-03-02T09:21:55;100545.38;;;8.06;60.08
85641;BME280;76065;47.182;27.506;2024-03-02T09:24:21;100542.69;;;8.11;59.31
85641;BME280;76065;47.182;27.506;2024-03-02T09:26:47;100543.75;;;8.15;59.79
85641;BME280;76065;47.182;27.506;2024-03-02T09:29:13;100489.06;;;7.86;59.35
85641;BME280;76065;47.182;27.506;2024-03-02T09:31:42;100534.09;;;8.19;58.91
85641;BME280;76065;47.182;27.506;2024-03-02T09:34:08;100544.28;;;8.27;59.31
85641;BME280;76065;47.182;27.506;2024-03-02T09:36:33;100528.47;;;8.26;59.06
85641;BME280;76065;47.182;27.506;2024-03-02T09:38:59;100544.88;;;8.29;57.67
85641;BME280;76065;47.182;27.506;2024-03-02T09:41:25;100533.56;;;8.27;58.42
85641;BME280;76065;47.182;27.506;2024-03-02T09:43:50;100525.78;;;8.26;58.27
85641;BME280;76065;47.182;27.506;2024-03-02T09:46:16;100532.22;;;8.35;57.81
85641;BME280;76065;47.182;27.506;2024-03-02T09:48:44;100541.09;;;8.40;57.59
85641;BME280;76065;47.182;27.506;2024-03-02T09:51:10;100535.47;;;8.37;57.50
85641;BME280;76065;47.182;27.506;2024-03-02T09:53:37;100527.97;;;8.29;57.24
85641;BME280;76065;47.182;27.506;2024-03-02T09:56:03;100527.41;;;8.32;57.75
85641;BME280;76065;47.182;27.506;2024-03-02T09:58:30;100532.22;;;8.45;57.63
85641;BME280;76065;47.182;27.506;2024-03-02T10:00:55;100532.22;;;8.40;57.04
85641;BME280;76065;47.182;27.506;2024-03-02T10:03:22;100537.31;;;8.46;57.15
85641;BME280;76065;47.182;27.506;2024-03-02T10:05:49;100531.97;;;8.41;58.23
85641;BME280;76065;47.182;27.506;2024-03-02T10:08:15;100520.97;;;8.38;57.53
85641;BME280;76065;47.182;27.506;2024-03-02T10:10:41;100515.06;;;8.46;56.92
85641;BME280;76065;47.182;27.506;2024-03-02T10:13:10;100516.91;;;8.56;56.96
85641;BME280;76065;47.182;27.506;2024-03-02T10:15:38;100514.75;;;8.58;56.50
85641;BME280;76065;47.182;27.506;2024-03-02T10:18:08;100496.50;;;8.55;56.05
85641;BME280;76065;47.182;27.506;2024-03-02T10:20:34;100512.84;;;8.68;55.76
85641;BME280;76065;47.182;27.506;2024-03-02T10:25:36;100507.22;;;8.60;58.29
85641;BME280;76065;47.182;27.506;2024-03-02T10:28:01;100497.78;;;8.77;56.70
85641;BME280;76065;47.182;27.506;2024-03-02T10:30:27;100503.38;;;8.91;58.21
85641;BME280;76065;47.182;27.506;2024-03-02T10:32:56;100497.47;;;8.94;56.25
85641;BME280;76065;47.182;27.506;2024-03-02T10:35:22;100494.53;;;8.90;57.90
85641;BME280;76065;47.182;27.506;2024-03-02T10:37:49;100490.44;;;9.03;55.94
85641;BME280;76065;47.182;27.506;2024-03-02T10:40:16;100484.81;;;9.00;56.37
85641;BME280;76065;47.182;27.506;2024-03-02T10:42:42;100486.63;;;9.14;56.21
85641;BME280;76065;47.182;27.506;2024-03-02T10:45:10;100495.44;;;9.25;55.73
85641;BME280;76065;47.182;27.506;2024-03-02T10:47:38;100488.47;;;9.19;55.98
85641;BME280;76065;47.182;27.506;2024-03-02T10:50:07;100480.88;;;9.31;55.72
85641;BME280;76065;47.182;27.506;2024-03-02T10:52:39;100494.28;;;9.36;56.45
85641;BME280;76065;47.182;27.506;2024-03-02T10:55:06;100487.88;;;9.32;56.91
85641;BME280;76065;47.182;27.506;2024-03-02T10:57:41;100482.38;;;9.52;57.21
85641;BME280;76065;47.182;27.506;2024-03-02T11:00:08;100489.56;;;9.62;57.29
85641;BME280;76065;47.182;27.506;2024-03-02T11:02:42;100479.25;;;9.74;55.11
85641;BME280;76065;47.182;27.506;2024-03-02T11:05:15;100484.66;;;9.69;54.33
85641;BME280;76065;47.182;27.506;2024-03-02T11:07:45;100489.97;;;9.79;54.02
85641;BME280;76065;47.182;27.506;2024-03-02T11:10:10;100493.94;;;9.53;56.98
85641;BME280;76065;47.182;27.506;2024-03-02T11:12:47;100495.41;;;9.74;54.94
85641;BME280;76065;47.182;27.506;2024-03-02T11:15:18;100493.56;;;9.69;55.87
85641;BME280;76065;47.182;27.506;2024-03-02T11:17:46;100493.25;;;9.71;55.98
85641;BME280;76065;47.182;27.506;2024-03-02T11:20:13;100487.88;;;9.71;55.99
85641;BME280;76065;47.182;27.506;2024-03-02T11:22:40;100483.44;;;9.90;54.82
85641;BME280;76065;47.182;27.506;2024-03-02T11:25:23;100487.44;;;9.93;53.98
85641;BME280;76065;47.182;27.506;2024-03-02T11:33:08;100479.81;;;10.05;53.27
85641;BME280;76065;47.182;27.506;2024-03-02T11:35:34;100462.72;;;9.91;54.24
85641;BME280;76065;47.182;27.506;2024-03-02T11:38:01;100477.16;;;10.00;53.18
85641;BME280;76065;47.182;27.506;2024-03-02T11:40:29;100460.34;;;9.84;54.54
85641;BME280;76065;47.182;27.506;2024-03-02T11:42:55;100458.19;;;9.86;53.12
85641;BME280;76065;47.182;27.506;2024-03-02T11:45:25;100462.47;;;9.53;55.98
85641;BME280;76065;47.182;27.506;2024-03-02T11:47:54;100463.44;;;9.67;55.98
85641;BME280;76065;47.182;27.506;2024-03-02T11:50:39;100470.53;;;9.87;53.23
85641;BME280;76065;47.182;27.506;2024-03-02T11:53:07;100472.91;;;9.94;52.08
85641;BME280;76065;47.182;27.506;2024-03-02T11:55:38;100466.97;;;9.97;52.30
85641;BME280;76065;47.182;27.506;2024-03-02T11:58:05;100475.81;;;10.02;51.96
85641;BME280;76065;47.182;27.506;2024-03-02T12:00:31;100467.16;;;10.05;51.56
85641;BME280;76065;47.182;27.506;2024-03-02T12:03:04;100452.06;;;10.09;51.94
85641;BME280;76065;47.182;27.506;2024-03-02T12:05:31;100456.97;;;10.02;50.93
85641;BME280;76065;47.182;27.506;2024-03-02T12:07:58;100460.19;;;9.99;51.92
85641;BME280;76065;47.182;27.506;2024-03-02T12:10:25;100457.88;;;9.87;52.04
85641;BME280;76065;47.182;27.506;2024-03-02T12:13:03;100458.91;;;9.97;52.04
85641;BME280;76065;47.182;27.506;2024-03-02T12:15:31;100466.16;;;9.96;51.76
85641;BME280;76065;47.182;27.506;2024-03-02T12:17:58;100462.53;;;9.82;52.76
85641;BME280;76065;47.182;27.506;2024-03-02T12:20:25;100455.56;;;9.76;53.32
85641;BME280;76065;47.182;27.506;2024-03-02T12:22:55;100467.31;;;9.90;53.78
85641;BME280;76065;47.182;27.506;2024-03-02T12:25:22;100458.09;;;9.96;53.49
85641;BME280;76065;47.182;27.506;2024-03-02T12:27:56;100459.66;;;10.02;53.25
85641;BME280;76065;47.182;27.506;2024-03-02T12:30:22;100463.44;;;10.01;53.05
85641;BME280;76065;47.182;27.506;2024-03-02T12:32:48;100456.06;;;10.12;53.02
85641;BME280;76065;47.182;27.506;2024-03-02T12:35:14;100449.63;;;10.08;53.32
85641;BME280;76065;47.182;27.506;2024-03-02T12:37:49;100464.13;;;10.17;52.18
85641;BME280;76065;47.182;27.506;2024-03-02T12:40:17;100462.81;;;10.09;52.95
85641;BME280;76065;47.182;27.506;2024-03-02T12:42:44;100463.63;;;10.10;53.01
85641;BME280;76065;47.182;27.506;2024-03-02T12:45:11;100464.22;;;10.02;53.10
85641;BME280;76065;47.182;27.506;2024-03-02T12:47:37;100460.19;;;9.99;53.76
85641;BME280;76065;47.182;27.506;2024-03-02T12:50:04;100457.56;;;9.94;53.23
85641;BME280;76065;47.182;27.506;2024-03-02T12:52:31;100458.13;;;9.91;53.40
85641;BME280;76065;47.182;27.506;2024-03-02T12:55:04;100457.16;;;9.82;54.20
85641;BME280;76065;47.182;27.506;2024-03-02T12:57:31;100457.69;;;9.79;53.90
85641;BME280;76065;47.182;27.506;2024-03-02T13:00:04;100406.81;;;9.54;53.63